createdAt,value
2023-03-01T00:01:20.625Z,7.15
2023-03-01T00:03:47.438Z,6.03
2023-03-01T00:06:14.213Z,4.40
2023-03-01T00:08:41.351Z,5.07
2023-03-01T00:11:16.085Z,6.57
2023-03-01T00:13:43.936Z,8.20
2023-03-01T00:16:19.582Z,6.05
2023-03-01T00:18:46.831Z,10.48
2023-03-01T00:21:13.704Z,13.40
2023-03-01T00:23:40.889Z,9.07
2023-03-01T00:26:10.461Z,9.50
2023-03-01T00:28:37.162Z,8.02
2023-03-01T00:31:08.789Z,5.90
2023-03-01T00:33:35.593Z,7.60
2023-03-01T00:36:02.846Z,12.60
2023-03-01T00:38:29.838Z,7.50
2023-03-01T00:40:56.574Z,7.00
2023-03-01T00:43:23.393Z,5.40
2023-03-01T00:45:50.410Z,5.82
2023-03-01T00:48:17.194Z,10.18
2023-03-01T00:56:27.422Z,5.10
2023-03-01T00:58:54.153Z,6.28
2023-03-01T01:01:28.531Z,7.18
2023-03-01T01:04:00.227Z,5.10
2023-03-01T01:06:39.058Z,5.07
2023-03-01T01:09:08.123Z,4.78
2023-03-01T01:11:37.430Z,2.38
2023-03-01T01:14:04.248Z,4.15
2023-03-01T01:16:31.691Z,5.00
2023-03-01T01:19:03.755Z,5.70
2023-03-01T01:21:30.797Z,9.15
2023-03-01T01:23:58.281Z,4.55
2023-03-01T01:26:27.630Z,3.05
2023-03-01T01:28:55.018Z,3.75
2023-03-01T01:31:24.772Z,8.68
2023-03-01T01:33:52.196Z,5.40
2023-03-01T01:36:18.960Z,4.57
2023-03-01T01:38:45.980Z,5.97
2023-03-01T01:41:14.250Z,5.47
2023-03-01T01:43:44.179Z,3.40
2023-03-01T01:46:25.115Z,6.78
2023-03-01T01:49:08.756Z,3.08
2023-03-01T01:51:41.482Z,3.08
2023-03-01T01:54:21.528Z,4.72
2023-03-01T01:56:56.092Z,2.58
2023-03-01T01:59:25.730Z,3.92
2023-03-01T02:01:56.012Z,3.75
2023-03-01T02:04:23.851Z,3.50
2023-03-01T02:07:21.215Z,3.75
2023-03-01T02:09:50.944Z,3.05
2023-03-01T02:12:19.626Z,4.43
2023-03-01T02:14:46.495Z,3.58
2023-03-01T02:17:16.786Z,2.58
2023-03-01T02:20:08.065Z,3.63
2023-03-01T02:22:38.154Z,2.72
2023-03-01T02:25:19.865Z,4.63
2023-03-01T02:28:17.115Z,2.75
2023-03-01T02:31:04.462Z,4.63
2023-03-01T02:33:33.874Z,4.75
2023-03-01T02:36:05.777Z,3.20
2023-03-01T02:38:33.340Z,5.43
2023-03-01T02:41:03.071Z,5.50
2023-03-01T02:43:32.752Z,6.95
2023-03-01T02:46:04.875Z,2.97
2023-03-01T02:48:46.029Z,7.07
2023-03-01T02:51:35.518Z,2.28
2023-03-01T02:54:29.281Z,4.57
2023-03-01T02:59:40.280Z,3.55
2023-03-01T03:02:37.442Z,14.07
2023-03-01T03:05:14.711Z,5.22
2023-03-01T03:07:44.266Z,2.63
2023-03-01T03:10:15.589Z,7.78
2023-03-01T03:12:42.878Z,6.47
2023-03-01T03:15:13.799Z,8.10
2023-03-01T03:17:42.016Z,7.28
2023-03-01T03:20:12.712Z,3.33
2023-03-01T03:22:40.996Z,5.88
2023-03-01T03:25:12.792Z,5.40
2023-03-01T03:27:40.651Z,4.60
2023-03-01T03:30:10.555Z,5.85
2023-03-01T03:32:37.626Z,3.58
2023-03-01T03:35:12.696Z,11.73
2023-03-01T03:37:59.405Z,6.55
2023-03-01T03:40:26.892Z,6.45
2023-03-01T03:42:53.633Z,4.38
2023-03-01T03:45:20.310Z,3.97
2023-03-01T03:47:47.119Z,3.60
2023-03-01T03:50:15.899Z,5.18
2023-03-01T03:52:43.238Z,5.50
2023-03-01T03:55:12.892Z,5.65
2023-03-01T03:57:43.333Z,4.22
2023-03-01T04:00:13.804Z,3.80
2023-03-01T04:02:44.430Z,4.35
2023-03-01T04:05:15.339Z,2.40
2023-03-01T04:07:43.425Z,5.32
2023-03-01T04:10:18.607Z,4.85
2023-03-01T04:12:45.427Z,4.85
2023-03-01T04:15:15.910Z,3.38
2023-03-01T04:17:47.744Z,4.72
2023-03-01T04:20:18.436Z,6.00
2023-03-01T04:22:48.688Z,8.90
2023-03-01T04:25:15.639Z,4.97
2023-03-01T04:27:42.473Z,5.47
2023-03-01T04:30:09.859Z,6.40
2023-03-01T04:32:36.573Z,7.32
2023-03-01T04:35:03.360Z,4.35
2023-03-01T04:37:30.839Z,4.75
2023-03-01T04:39:57.650Z,3.92
2023-03-01T04:42:24.312Z,2.33
2023-03-01T04:44:52.374Z,3.08
2023-03-01T04:47:19.054Z,2.58
2023-03-01T04:49:45.717Z,5.25
2023-03-01T04:52:12.384Z,5.45
2023-03-01T04:54:39.030Z,6.47
2023-03-01T04:57:05.728Z,4.25
2023-03-01T04:59:32.371Z,7.40
2023-03-01T05:01:59.121Z,3.10
2023-03-01T05:04:26.117Z,2.63
2023-03-01T05:06:54.696Z,5.82
2023-03-01T05:09:21.397Z,3.17
2023-03-01T05:11:48.123Z,5.15
2023-03-01T05:14:14.845Z,5.53
2023-03-01T05:16:41.510Z,2.45
2023-03-01T05:19:16.304Z,4.90
2023-03-01T05:22:02.574Z,4.88
2023-03-01T05:24:31.135Z,3.85
2023-03-01T05:26:57.996Z,5.40
2023-03-01T05:29:26.384Z,4.55
2023-03-01T05:31:59.209Z,5.75
2023-03-01T05:34:35.100Z,3.65
2023-03-01T05:37:02.354Z,6.13
2023-03-01T05:39:30.456Z,3.80
2023-03-01T05:41:59.492Z,5.50
2023-03-01T05:44:27.206Z,5.68
2023-03-01T05:46:54.144Z,6.88
2023-03-01T05:49:20.864Z,6.05
2023-03-01T05:51:53.271Z,4.57
2023-03-01T05:54:21.802Z,3.80
2023-03-01T05:56:48.659Z,7.50
2023-03-01T05:59:17.427Z,6.60
2023-03-01T06:01:44.672Z,6.47
2023-03-01T06:04:11.708Z,6.18
2023-03-01T06:06:40.538Z,6.28
2023-03-01T06:09:10.285Z,5.32
2023-03-01T06:11:38.117Z,3.60
2023-03-01T06:14:07.535Z,7.82
2023-03-01T06:16:34.391Z,4.32
2023-03-01T06:19:01.175Z,4.35
2023-03-01T06:21:27.908Z,8.23
2023-03-01T06:23:54.613Z,5.78
2023-03-01T06:26:21.546Z,4.18
2023-03-01T06:28:48.214Z,5.47
2023-03-01T06:31:15.052Z,3.53
2023-03-01T06:33:44.491Z,7.63
2023-03-01T06:36:11.259Z,4.90
2023-03-01T06:38:38.068Z,5.80
2023-03-01T06:41:05.107Z,7.53
2023-03-01T06:43:31.881Z,5.50
2023-03-01T06:45:58.539Z,7.38
2023-03-01T06:48:25.278Z,4.38
2023-03-01T06:50:52.048Z,3.83
2023-03-01T06:53:18.798Z,3.17
2023-03-01T06:55:45.528Z,2.08
2023-03-01T06:58:12.425Z,2.80
2023-03-01T07:00:41.211Z,3.35
2023-03-01T07:03:08.023Z,3.00
2023-03-01T07:05:35.255Z,10.13
2023-03-01T07:08:02.337Z,3.88
2023-03-01T07:10:29.220Z,4.47
2023-03-01T07:12:57.410Z,2.88
2023-03-01T07:15:24.349Z,5.15
2023-03-01T07:17:51.890Z,6.05
2023-03-01T07:20:22.263Z,5.53
2023-03-01T07:22:49.356Z,6.47
2023-03-01T07:25:16.257Z,2.65
2023-03-01T07:27:42.932Z,3.42
2023-03-01T07:30:10.615Z,5.15
2023-03-01T07:32:37.472Z,5.20
2023-03-01T07:35:04.461Z,3.97
2023-03-01T07:37:31.205Z,1.88
2023-03-01T07:39:58.801Z,4.47
2023-03-01T07:42:25.489Z,5.60
2023-03-01T07:44:52.162Z,3.03
2023-03-01T07:47:18.886Z,5.43
2023-03-01T07:49:45.691Z,3.65
2023-03-01T07:52:13.183Z,2.58
2023-03-01T07:54:40.223Z,6.50
2023-03-01T07:57:06.940Z,4.57
2023-03-01T07:59:34.579Z,7.13
2023-03-01T08:02:01.380Z,4.05
2023-03-01T08:04:28.161Z,10.77
2023-03-01T08:06:56.200Z,4.50
2023-03-01T08:09:23.613Z,3.50
2023-03-01T08:11:50.411Z,4.20
2023-03-01T08:14:17.387Z,4.35
2023-03-01T08:16:44.181Z,4.13
2023-03-01T08:19:13.416Z,7.82
2023-03-01T08:21:40.175Z,5.60
2023-03-01T08:24:07.709Z,4.65
2023-03-01T08:26:35.182Z,4.65
2023-03-01T08:29:02.413Z,4.03
2023-03-01T08:31:41.050Z,4.80
2023-03-01T08:34:14.476Z,3.58
2023-03-01T08:36:43.834Z,4.70
2023-03-01T08:39:13.106Z,4.97
2023-03-01T08:41:40.396Z,4.88
2023-03-01T08:44:07.626Z,4.72
2023-03-01T08:46:41.375Z,3.55
2023-03-01T08:49:13.764Z,6.75
2023-03-01T08:51:40.712Z,5.50
2023-03-01T08:54:12.136Z,4.85
2023-03-01T08:56:39.656Z,6.90
2023-03-01T08:59:06.588Z,5.70
2023-03-01T09:01:33.607Z,6.45
2023-03-01T09:04:00.523Z,5.53
2023-03-01T09:06:27.241Z,5.65
2023-03-01T09:08:54.169Z,5.50
2023-03-01T09:11:22.409Z,8.15
2023-03-01T09:13:50.174Z,3.58
2023-03-01T09:16:19.010Z,5.05
2023-03-01T09:18:46.925Z,5.15
2023-03-01T09:21:17.432Z,5.47
2023-03-01T09:23:47.489Z,3.45
2023-03-01T09:26:17.929Z,4.13
2023-03-01T09:28:47.280Z,6.53
2023-03-01T09:31:15.137Z,5.20
2023-03-01T09:33:43.224Z,8.27
2023-03-01T09:36:13.630Z,10.13
2023-03-01T09:38:40.497Z,8.13
2023-03-01T09:41:26.387Z,5.50
2023-03-01T09:43:58.998Z,7.70
2023-03-01T09:46:27.935Z,9.48
2023-03-01T09:49:11.973Z,5.05
2023-03-01T09:51:38.825Z,10.95
2023-03-01T09:54:09.434Z,6.28
2023-03-01T09:56:39.755Z,4.45
2023-03-01T09:59:23.471Z,3.60
2023-03-01T10:01:59.137Z,5.13
2023-03-01T10:04:49.534Z,6.53
2023-03-01T10:07:33.778Z,7.10
2023-03-01T10:10:01.593Z,5.85
2023-03-01T10:12:41.301Z,6.28
2023-03-01T10:15:13.662Z,4.75
2023-03-01T10:17:58.963Z,6.60
2023-03-01T10:20:31.792Z,5.35
2023-03-01T10:22:58.525Z,4.53
2023-03-01T10:25:43.955Z,8.18
2023-03-01T10:28:26.242Z,9.65
2023-03-01T10:30:54.096Z,3.25
2023-03-01T10:33:32.122Z,4.57
2023-03-01T10:35:59.335Z,4.85
2023-03-01T10:38:26.259Z,7.35
2023-03-01T10:41:09.618Z,8.82
2023-03-01T10:43:47.245Z,4.63
2023-03-01T10:46:31.730Z,7.00
2023-03-01T10:49:20.626Z,5.38
2023-03-01T10:51:50.796Z,7.88
2023-03-01T10:54:29.148Z,5.28
2023-03-01T10:57:04.950Z,8.50
2023-03-01T10:59:39.645Z,8.85
2023-03-01T11:02:29.327Z,9.00
2023-03-01T11:05:14.022Z,8.02
2023-03-01T11:07:53.185Z,6.18
2023-03-01T11:10:35.083Z,7.13
2023-03-01T11:13:20.669Z,6.22
2023-03-01T11:16:02.467Z,7.45
2023-03-01T11:18:46.349Z,5.60
2023-03-01T11:21:16.497Z,9.10
2023-03-01T11:23:46.768Z,9.73
2023-03-01T11:26:14.764Z,12.23
2023-03-01T11:28:43.798Z,4.60
2023-03-01T11:31:16.234Z,3.72
2023-03-01T11:33:56.686Z,5.47
2023-03-01T11:36:45.173Z,6.78
2023-03-01T11:39:43.010Z,3.65
2023-03-01T11:42:21.481Z,12.27
2023-03-01T11:44:51.645Z,11.40
2023-03-01T11:47:24.141Z,8.70
2023-03-01T11:50:09.746Z,7.80
2023-03-01T11:53:05.764Z,7.95
2023-03-01T11:55:41.617Z,3.55
2023-03-01T11:58:28.490Z,3.50
2023-03-01T12:01:16.781Z,3.75
2023-03-01T12:04:05.284Z,7.15
2023-03-01T12:07:13.770Z,8.93
2023-03-01T12:09:46.341Z,5.63
2023-03-01T12:12:38.965Z,6.88
2023-03-01T12:15:45.930Z,5.82
2023-03-01T12:18:44.226Z,7.68
2023-03-01T12:21:29.816Z,4.10
2023-03-01T12:24:34.020Z,6.10
2023-03-01T12:29:38.278Z,6.00
2023-03-01T12:32:10.181Z,6.10
2023-03-01T12:35:13.698Z,7.85
2023-03-01T12:37:47.755Z,4.18
2023-03-01T12:40:21.965Z,3.63
2023-03-01T12:43:28.461Z,5.90
2023-03-01T12:46:01.138Z,4.82
2023-03-01T12:48:46.637Z,8.30
2023-03-01T12:51:16.888Z,10.20
2023-03-01T12:53:48.662Z,6.93
2023-03-01T12:56:19.532Z,6.80
2023-03-01T12:59:12.470Z,6.25
2023-03-01T13:02:06.020Z,7.32
2023-03-01T13:04:51.060Z,6.15
2023-03-01T13:07:17.865Z,11.07
2023-03-01T13:10:10.998Z,5.50
2023-03-01T13:12:50.626Z,12.93
2023-03-01T13:15:28.889Z,8.00
2023-03-01T13:17:59.675Z,6.60
2023-03-01T13:20:32.993Z,10.68
2023-03-01T13:23:12.038Z,6.35
2023-03-01T13:26:03.687Z,7.68
2023-03-01T13:28:36.489Z,11.02
2023-03-01T13:31:07.999Z,8.35
2023-03-01T13:33:47.862Z,7.13
2023-03-01T13:36:30.829Z,10.45
2023-03-01T13:39:00.177Z,6.78
2023-03-01T13:41:42.081Z,8.00
2023-03-01T13:44:24.883Z,10.30
2023-03-01T13:46:54.191Z,8.85
2023-03-01T13:49:24.884Z,10.45
2023-03-01T13:51:52.846Z,8.88
2023-03-01T13:54:32.352Z,7.18
2023-03-01T13:57:03.546Z,7.20
2023-03-01T13:59:31.701Z,7.78
2023-03-01T14:02:00.691Z,5.97
2023-03-01T14:04:32.433Z,7.50
2023-03-01T14:07:21.024Z,10.23
2023-03-01T14:09:53.248Z,9.75
2023-03-01T14:12:42.663Z,8.35
2023-03-01T14:15:35.421Z,6.50
2023-03-01T14:18:02.188Z,8.27
2023-03-01T14:20:33.426Z,6.60
2023-03-01T14:23:09.816Z,9.13
2023-03-01T14:25:39.129Z,7.72
2023-03-01T14:28:15.664Z,7.97
2023-03-01T14:30:48.574Z,8.98
2023-03-01T14:33:25.741Z,10.00
2023-03-01T14:36:06.541Z,8.38
2023-03-01T14:38:43.464Z,10.57
2023-03-01T14:41:18.986Z,11.50
2023-03-01T14:43:53.353Z,12.75
2023-03-01T14:46:38.909Z,12.65
2023-03-01T14:49:11.781Z,8.25
2023-03-01T14:51:40.450Z,11.15
2023-03-01T14:55:05.650Z,10.52
2023-03-01T14:57:33.164Z,8.48
2023-03-01T15:00:05.922Z,8.35
2023-03-01T15:02:34.043Z,11.65
2023-03-01T15:05:08.165Z,7.28
2023-03-01T15:07:41.093Z,15.57
2023-03-01T15:10:16.833Z,7.97
2023-03-01T15:12:43.697Z,11.98
2023-03-01T15:15:30.995Z,11.80
2023-03-01T15:18:01.215Z,9.50
2023-03-01T15:20:31.070Z,23.38
2023-03-01T15:22:58.447Z,6.55
2023-03-01T15:25:28.468Z,7.88
2023-03-01T15:27:57.801Z,8.52
2023-03-01T15:30:26.897Z,13.07
2023-03-01T15:33:19.998Z,11.10
2023-03-01T15:35:49.562Z,10.93
2023-03-01T15:38:51.340Z,7.28
2023-03-01T15:41:29.158Z,10.52
2023-03-01T15:43:56.872Z,10.68
2023-03-01T15:46:27.272Z,7.47
2023-03-01T15:48:57.939Z,12.88
2023-03-01T15:51:37.056Z,6.47
2023-03-01T15:54:18.655Z,11.57
2023-03-01T15:56:45.633Z,11.27
2023-03-01T15:59:15.112Z,6.78
2023-03-01T16:01:42.718Z,6.78
2023-03-01T16:04:21.882Z,6.00
2023-03-01T16:06:55.055Z,6.63
2023-03-01T16:09:26.515Z,23.00
2023-03-01T16:11:54.979Z,6.38
2023-03-01T16:14:22.738Z,4.10
2023-03-01T16:16:50.139Z,6.47
2023-03-01T16:19:17.402Z,5.22
2023-03-01T16:21:47.759Z,7.97
2023-03-01T16:24:15.372Z,8.38
2023-03-01T16:26:43.295Z,6.85
2023-03-01T16:29:40.928Z,7.18
2023-03-01T16:32:07.927Z,5.38
2023-03-01T16:34:35.234Z,8.38
2023-03-01T16:37:02.208Z,4.60
2023-03-01T16:39:29.126Z,10.55
2023-03-01T16:41:56.112Z,8.27
2023-03-01T16:44:22.874Z,9.25
2023-03-01T16:46:49.932Z,9.27
2023-03-01T16:49:16.672Z,12.05
2023-03-01T16:51:43.371Z,8.52
2023-03-01T16:54:10.823Z,8.70
2023-03-01T16:56:39.711Z,8.07
2023-03-01T16:59:07.260Z,8.70
2023-03-01T17:01:38.625Z,10.85
2023-03-01T17:04:05.568Z,13.82
2023-03-01T17:06:33.478Z,14.68
2023-03-01T17:09:00.699Z,9.93
2023-03-01T17:11:27.410Z,9.73
2023-03-01T17:13:54.320Z,11.63
2023-03-01T17:16:22.132Z,13.70
2023-03-01T17:18:50.073Z,14.70
2023-03-01T17:21:17.678Z,10.75
2023-03-01T17:23:46.300Z,11.82
2023-03-01T17:26:13.751Z,12.40
2023-03-01T17:28:41.215Z,15.80
2023-03-01T17:31:07.945Z,12.98
2023-03-01T17:33:34.988Z,13.77
2023-03-01T17:36:02.376Z,12.18
2023-03-01T17:38:29.126Z,16.50
2023-03-01T17:40:55.871Z,9.73
2023-03-01T17:43:22.675Z,11.90
2023-03-01T17:45:51.599Z,9.77
2023-03-01T17:48:18.612Z,13.98
2023-03-01T17:50:45.399Z,10.90
2023-03-01T17:53:12.926Z,10.88
2023-03-01T17:55:41.493Z,10.38
2023-03-01T17:58:09.809Z,11.23
2023-03-01T18:00:37.185Z,11.02
2023-03-01T18:03:04.627Z,16.00
2023-03-01T18:05:40.346Z,13.20
2023-03-01T18:08:07.125Z,15.45
2023-03-01T18:10:36.536Z,17.70
2023-03-01T18:13:05.018Z,14.05
2023-03-01T18:15:32.514Z,18.85
2023-03-01T18:17:59.471Z,18.80
2023-03-01T18:20:27.464Z,13.40
2023-03-01T18:22:54.171Z,15.85
2023-03-01T18:25:22.155Z,15.77
2023-03-01T18:27:49.159Z,26.13
2023-03-01T18:30:16.077Z,17.38
2023-03-01T18:32:45.804Z,19.85
2023-03-01T18:35:12.503Z,14.32
2023-03-01T18:37:39.232Z,11.88
2023-03-01T18:40:08.133Z,20.00
2023-03-01T18:42:34.810Z,15.68
2023-03-01T18:45:01.543Z,20.50
2023-03-01T18:47:28.234Z,17.45
2023-03-01T18:49:54.928Z,18.52
2023-03-01T18:52:21.625Z,19.08
2023-03-01T18:54:51.372Z,11.65
2023-03-01T18:57:18.308Z,14.85
2023-03-01T18:59:45.092Z,12.75
2023-03-01T19:02:12.970Z,15.68
2023-03-01T19:04:40.733Z,17.20
2023-03-01T19:07:08.239Z,17.83
2023-03-01T19:09:35.136Z,19.23
2023-03-01T19:12:03.961Z,15.07
2023-03-01T19:14:31.668Z,21.17
2023-03-01T19:16:59.309Z,24.63
2023-03-01T19:19:27.345Z,19.85
2023-03-01T19:22:05.206Z,18.17
2023-03-01T19:24:33.560Z,18.42
2023-03-01T19:27:07.547Z,16.23
2023-03-01T19:29:36.030Z,15.55
2023-03-01T19:32:05.711Z,23.17
2023-03-01T19:34:33.613Z,24.13
2023-03-01T19:37:05.380Z,19.38
2023-03-01T19:39:36.133Z,17.73
2023-03-01T19:42:05.061Z,19.27
2023-03-01T19:44:32.229Z,24.80
2023-03-01T19:46:59.680Z,21.35
2023-03-01T19:49:31.166Z,20.63
2023-03-01T19:51:59.405Z,17.88
2023-03-01T19:54:30.088Z,15.80
2023-03-01T19:56:58.010Z,13.82
2023-03-01T19:59:28.130Z,27.42
2023-03-01T20:01:56.569Z,16.35
2023-03-01T20:04:27.252Z,27.83
2023-03-01T20:06:57.844Z,22.13
2023-03-01T20:09:25.612Z,22.92
2023-03-01T20:11:53.520Z,22.80
2023-03-01T20:14:24.232Z,23.90
2023-03-01T20:16:54.298Z,19.02
2023-03-01T20:19:21.442Z,20.92
2023-03-01T20:21:52.012Z,16.35
2023-03-01T20:24:18.758Z,29.13
2023-03-01T20:26:48.870Z,26.70
2023-03-01T20:29:15.771Z,27.42
2023-03-01T20:31:43.423Z,22.33
2023-03-01T20:34:10.656Z,22.67
2023-03-01T20:36:39.648Z,25.42
2023-03-01T20:39:06.575Z,22.05
2023-03-01T20:41:33.424Z,19.27
2023-03-01T20:44:12.505Z,43.85
2023-03-01T20:46:40.197Z,24.02
2023-03-01T20:49:09.649Z,26.23
2023-03-01T20:51:36.950Z,22.38
2023-03-01T20:54:03.838Z,19.15
2023-03-01T20:56:34.191Z,21.85
2023-03-01T20:59:01.306Z,30.52
2023-03-01T21:01:28.540Z,20.27
2023-03-01T21:03:56.046Z,22.70
2023-03-01T21:06:23.181Z,26.20
2023-03-01T21:08:49.963Z,26.55
2023-03-01T21:11:18.430Z,28.45
2023-03-01T21:13:45.509Z,27.17
2023-03-01T21:16:14.276Z,28.73
2023-03-01T21:18:44.654Z,27.73
2023-03-01T21:21:22.823Z,36.40
2023-03-01T21:23:49.792Z,28.52
2023-03-01T21:26:21.109Z,24.88
2023-03-01T21:28:50.299Z,24.58
2023-03-01T21:31:20.691Z,28.48
2023-03-01T21:33:50.617Z,26.08
2023-03-01T21:36:17.901Z,27.77
2023-03-01T21:38:48.530Z,25.38
2023-03-01T21:41:20.811Z,24.45
2023-03-01T21:43:49.908Z,32.43
2023-03-01T21:46:20.401Z,21.55
2023-03-01T21:48:48.599Z,28.25
2023-03-01T21:51:16.942Z,16.45
2023-03-01T21:53:44.009Z,26.65
2023-03-01T21:56:16.369Z,23.30
2023-03-01T21:58:46.438Z,22.43
2023-03-01T22:01:19.572Z,17.33
2023-03-01T22:03:46.443Z,21.02
2023-03-01T22:06:19.691Z,21.15
2023-03-01T22:09:09.700Z,19.27
2023-03-01T22:11:39.645Z,18.60
2023-03-01T22:14:07.572Z,16.83
2023-03-01T22:16:36.909Z,14.73
2023-03-01T22:19:04.830Z,21.38
2023-03-01T22:21:33.520Z,21.80
2023-03-01T22:24:00.902Z,20.42
2023-03-01T22:26:39.553Z,24.27
2023-03-01T22:29:09.641Z,18.45
2023-03-01T22:31:37.015Z,20.10
2023-03-01T22:34:04.754Z,25.85
2023-03-01T22:36:32.995Z,21.08
2023-03-01T22:39:00.581Z,19.70
2023-03-01T22:41:33.904Z,22.17
2023-03-01T22:44:04.073Z,18.17
2023-03-01T22:46:31.484Z,28.73
2023-03-01T22:48:58.526Z,19.20
2023-03-01T22:51:35.010Z,19.50
2023-03-01T22:54:02.106Z,17.23
2023-03-01T22:56:31.735Z,19.08
2023-03-01T22:59:03.519Z,16.02
2023-03-01T23:01:31.946Z,22.42
2023-03-01T23:03:58.995Z,27.70
2023-03-01T23:06:25.920Z,23.83
2023-03-01T23:08:55.305Z,19.05
2023-03-01T23:11:23.481Z,25.88
2023-03-01T23:13:53.156Z,26.65
2023-03-01T23:16:26.375Z,26.67
2023-03-01T23:18:54.818Z,24.02
2023-03-01T23:21:24.826Z,21.38
2023-03-01T23:23:51.976Z,15.77
2023-03-01T23:26:19.262Z,18.30
2023-03-01T23:28:46.103Z,20.52
2023-03-01T23:31:16.570Z,17.83
2023-03-01T23:33:45.307Z,14.75
2023-03-01T23:36:15.013Z,25.42
2023-03-01T23:38:42.094Z,22.55
2023-03-01T23:41:18.036Z,27.13
2023-03-01T23:43:46.118Z,22.20
2023-03-01T23:46:14.688Z,16.73
2023-03-01T23:48:42.848Z,17.20
2023-03-01T23:51:10.269Z,20.65
2023-03-01T23:53:39.780Z,15.20
2023-03-01T23:56:07.392Z,17.98
2023-03-01T23:58:34.153Z,28.67
